ADDS METAR Data INFO
IDs: Format: Raw Decoded Include TAF

Data at: 1411 UTC 12 Dec 2017

PAVL 121353Z AUTO 08011KT 9SM OVC021 M06/M07 A2954 RMK AO2 SNE50 SLP003 P0000 T10561072 TSNO $
PAVL 121327Z AUTO 08011KT 6SM -SN BR OVC024 M06/M07 A2953 RMK AO2 P0000 T10561072 TSNO $
PAVL 121319Z AUTO 08010KT 2 1/2SM -SN BR OVC026 M06/M07 A2953 RMK AO2 P0000 T10561067 TSNO $
PAVL 121251Z AUTO 07011KT 1 3/4SM -SN BR OVC029 M06/M07 A2953 RMK AO2 SNB26 SLP000 P0000 T10561072 TSNO $
PAVL 121153Z AUTO 07009KT 10SM OVC022 M06/M08 A2952 RMK AO2 SLP997 60000 T10561078 11056 21078 51008 TSNO $
PAVL 121132Z AUTO 07007KT 10SM BKN023 BKN030 OVC045 M06/M07 A2952 RMK AO2 T10611072 TSNO $
PAVL 121053Z AUTO 08007KT 8SM BKN033 OVC048 M06/M07 A2952 RMK AO2 SNE51 SLP996 P0000 T10611072 TSNO $
PAVL 121046Z AUTO 07007KT 5SM -SN BR BKN033 OVC050 M06/M07 A2952 RMK AO2 P0000 T10611072 TSNO $
PAVL 120958Z AUTO 06009KT 2 1/2SM -SN BR SCT023 OVC031 M06/M08 A2951 RMK AO2 P0000 T10611078 TSNO $
PAVL 120953Z AUTO 06009KT 4SM -SN BR BKN023 OVC031 M06/M08 A2951 RMK AO2 SNB25 SLP992 P0000 T10611078 TSNO $
PAVL 120853Z AUTO 06008KT 10SM OVC026 M07/M08 A2950 RMK AO2 SLP989 T10671083 410671117 53013 TSNO $
PAVL 120832Z AUTO 06009KT 10SM OVC028 M07/M08 A2950 RMK AO2 T10671083 TSNO $
PAVL 120737Z AUTO 06010KT 10SM OVC030 M07/M09 A2948 RMK AO2 T10721089 TSNO $
PAVL 120653Z AUTO 05013KT 10SM BKN029 OVC050 M07/M09 A2947 RMK AO2 SLP980 T10721094 TSNO $
PAVL 120642Z AUTO 05013KT 10SM BKN029 OVC050 M07/M09 A2947 RMK AO2 T10721089 TSNO $
PAVL 120553Z AUTO 06012KT 10SM SCT030 OVC048 M07/M09 A2946 RMK AO2 SLP977 60000 T10721089 11072 21089 51012 TSNO $
PAVL 120515Z AUTO 06011KT 8SM SCT022 OVC049 M07/M09 A2946 RMK AO2 T10721089 TSNO $
PAVL 120453Z AUTO 07009KT 5SM BR SCT022 OVC029 M07/M09 A2946 RMK AO2 SLP975 T10721089 TSNO $
PAVL 120353Z AUTO 04011KT 6SM BR OVC050 M07/M09 A2944 RMK AO2 SLP969 T10721094 TSNO $
PAVL 120339Z AUTO 03010KT 5SM BR SCT028 OVC050 M07/M09 A2943 RMK AO2 T10721094 TSNO $
PAVL 120253Z AUTO 04009KT 9SM OVC027 M07/M10 A2943 RMK AO2 SLP965 60000 T10721100 53011 TSNO $
PAVL 120203Z AUTO 05008KT 10SM BKN021 BKN028 OVC047 M08/M10 A2941 RMK AO2 T10781100 TSNO $
PAVL 120153Z AUTO 05009KT 9SM FEW021 SCT027 OVC047 M08/M10 A2941 RMK AO2 SNE00 SLP958 P0000 T10781100 TSNO $
PAVL 112353Z AUTO 04008KT 5SM -SN BR OVC060 M09/M11 A2939 RMK AO2 SNB52 SLP953 P0000 60000 T10891111 11089 21117 51006 TSNO $
PAVL 112253Z AUTO 02008KT 10SM FEW080 BKN095 BKN120 M10/M12 A2939 RMK AO2 SLP952 T11001122 TSNO $
PAVL 112153Z AUTO 35007KT 10SM BKN100 M11/M13 A2938 RMK AO2 SLP950 T11061128 TSNO $
PAVL 112053Z AUTO 01010KT 10SM BKN100 M10/M12 A2938 RMK AO2 SLP948 T11001122 53000 TSNO $
PAVL 111953Z AUTO 03014KT 10SM SCT120 M10/M13 A2937 RMK AO2 SLP946 T11001128 TSNO $
PAVL 111853Z AUTO 02015KT 9SM SCT120 M12/M14 A2937 RMK AO2 SLP947 T11171139 TSNO $
PAVL 111753Z AUTO 01015KT 10SM SCT120 M11/M13 A2937 RMK AO2 SLP947 60000 T11111133 11089 21111 56018 TSNO $
PAVL 111653Z AUTO 36016KT 10SM BKN032 M11/M13 A2938 RMK AO2 SLP950 T11111133 TSNO $
PAVL 111553Z AUTO 01012KT 10SM FEW035 OVC055 M09/M11 A2940 RMK AO2 SLP955 T10891111 TSNO $
PAVL 111453Z AUTO 34008KT 10SM OVC037 M09/M11 A2943 RMK AO2 SLP966 60000 T10941111 58021 TSNO $
PAVL 111353Z AUTO 34005KT 7SM OVC070 M09/M11 A2945 RMK AO2 SNE51 SLP973 P0000 T10941111 TSNO $
PAVL 111338Z AUTO 01004KT 3SM -SN BR SCT026 OVC075 M09/M11 A2945 RMK AO2 P0000 T10941111 TSNO $
PAVL 111332Z AUTO 36005KT 2 1/2SM -SN BR BKN028 OVC075 M09/M11 A2945 RMK AO2 P0000 T10941111 TSNO $
PAVL 111253Z AUTO 07003KT 1SM -SN BR VV019 M09/M11 A2947 RMK AO2 SLP981 P0000 T10941111 TSNO $
PAVL 111237Z AUTO 04003KT 1 3/4SM -SN BR OVC028 M09/M11 A2948 RMK AO2 P0000 T10941111 TSNO $
PAVL 111228Z AUTO 00000KT 2SM -SN BR OVC034 M09/M11 A2948 RMK AO2 P0000 T10941111 TSNO $
PAVL 111153Z AUTO 00000KT 3SM -SN OVC038 M09/M12 A2949 RMK AO2 SNE05B21 SLP987 P0000 60000 T10941122 11094 21150 56032 TSNO $
PAVL 111119Z AUTO 01006KT 6SM BR OVC031 M09/M12 A2951 RMK AO2 SNE05 P0000 T10941117 TSNO $
PAVL 111053Z AUTO 04007KT 4SM -SN BR OVC027 M09/M12 A2952 RMK AO2 SNB02 SLP997 P0000 T10941117 TSNO $
PAVL 110953Z AUTO 06003KT 8SM BKN022 OVC029 M10/M13 A2955 RMK AO2 SLP006 T11001128 TSNO $
PAVL 110853Z AUTO 01006KT 9SM OVC028 M11/M14 A2959 RMK AO2 SLP019 T11111144 411111178 56015 TSNO $
PAVL 110753Z AUTO 01010KT 10SM OVC039 M12/M16 A2960 RMK AO2 SLP025 T11221156 TSNO $
PAVL 110653Z AUTO 02013KT 10SM FEW100 BKN120 M14/M17 A2963 RMK AO2 SLP033 T11391172 TSNO $
PAVL 110553Z AUTO 01012KT 10SM FEW120 M15/M18 A2966 RMK AO2 SLP044 T11501183 11139 21156 58018 TSNO $
PAVL 110453Z AUTO 01015KT 10SM CLR M15/M18 A2968 RMK AO2 SLP050 T11501183 TSNO $
PAVL 110353Z AUTO 01014KT 10SM BKN100 M14/M18 A2970 RMK AO2 SLP058 T11441178 TSNO $
PAVL 110253Z AUTO 02019KT 10SM CLR M14/M18 A2971 RMK AO2 SLP062 T11441178 56017 TSNO $